createdAt,value
2023-04-07T00:01:02.634Z,10.60
2023-04-07T00:02:34.428Z,10.30
2023-04-07T00:04:06.304Z,12.70
2023-04-07T00:05:38.173Z,9.60
2023-04-07T00:07:09.959Z,11.50
2023-04-07T00:08:41.739Z,10.90
2023-04-07T00:10:13.514Z,11.30
2023-04-07T00:11:45.279Z,10.00
2023-04-07T00:13:17.199Z,11.30
2023-04-07T00:14:48.942Z,11.90
2023-04-07T00:16:20.926Z,9.60
2023-04-07T00:17:52.766Z,10.80
2023-04-07T00:19:24.730Z,10.30
2023-04-07T00:20:57.011Z,11.70
2023-04-07T00:22:28.709Z,11.80
2023-04-07T00:24:00.437Z,11.10
2023-04-07T00:25:32.189Z,11.80
2023-04-07T00:27:04.045Z,13.70
2023-04-07T00:28:35.727Z,11.50
2023-04-07T00:30:08.767Z,12.60
2023-04-07T00:31:40.628Z,11.70
2023-04-07T00:33:12.504Z,13.10
2023-04-07T00:34:44.312Z,11.80
2023-04-07T00:36:16.215Z,12.90
2023-04-07T00:37:47.984Z,14.70
2023-04-07T00:39:21.306Z,13.40
2023-04-07T00:41:02.118Z,12.70
2023-04-07T00:42:34.618Z,11.90
2023-04-07T00:44:06.299Z,12.40
2023-04-07T00:45:38.154Z,13.50
2023-04-07T00:47:10.541Z,15.20
2023-04-07T00:48:42.439Z,14.40
2023-04-07T00:50:14.230Z,16.50
2023-04-07T00:51:46.919Z,16.30
2023-04-07T00:53:20.550Z,14.90
2023-04-07T00:54:55.382Z,14.00
2023-04-07T00:56:27.720Z,13.20
2023-04-07T00:57:59.598Z,14.40
2023-04-07T00:59:32.514Z,15.20
2023-04-07T01:01:13.528Z,13.30
2023-04-07T01:02:58.995Z,14.50
2023-04-07T01:04:45.067Z,17.10
2023-04-07T01:06:24.351Z,14.00
2023-04-07T01:08:20.850Z,14.10
2023-04-07T01:10:06.632Z,13.30
2023-04-07T01:12:39.253Z,15.30
2023-04-07T01:14:16.045Z,13.40
2023-04-07T01:15:57.031Z,16.80
2023-04-07T01:17:35.417Z,17.30
2023-04-07T01:19:24.586Z,15.30
2023-04-07T01:21:11.244Z,13.80
2023-04-07T01:22:51.039Z,13.60
2023-04-07T01:24:49.551Z,13.90
2023-04-07T01:26:36.732Z,14.80
2023-04-07T01:28:44.899Z,14.40
2023-04-07T01:30:19.393Z,12.70
2023-04-07T01:31:52.522Z,14.20
2023-04-07T01:33:28.681Z,14.30
2023-04-07T01:35:03.014Z,16.50
2023-04-07T01:36:34.964Z,16.30
2023-04-07T01:38:07.601Z,19.60
2023-04-07T01:39:40.230Z,16.90
2023-04-07T01:41:14.907Z,17.40
2023-04-07T01:42:48.726Z,15.50
2023-04-07T01:44:21.867Z,14.60
2023-04-07T01:45:55.590Z,15.90
2023-04-07T01:47:31.301Z,16.20
2023-04-07T01:49:05.638Z,15.60
2023-04-07T01:50:38.851Z,15.70
2023-04-07T01:52:11.546Z,16.60
2023-04-07T01:53:47.639Z,16.50
2023-04-07T01:55:20.015Z,18.40
2023-04-07T01:56:59.943Z,16.00
2023-04-07T01:58:31.734Z,16.10
2023-04-07T02:00:04.333Z,15.30
2023-04-07T02:01:47.748Z,15.30
2023-04-07T02:04:15.672Z,18.10
2023-04-07T02:05:56.460Z,15.50
2023-04-07T02:08:05.243Z,15.40
2023-04-07T02:09:42.453Z,15.30
2023-04-07T02:11:18.582Z,14.70
2023-04-07T02:12:52.685Z,16.00
2023-04-07T02:14:24.971Z,16.20
2023-04-07T02:16:11.972Z,15.00
2023-04-07T02:17:49.807Z,17.50
2023-04-07T02:19:22.502Z,16.00
2023-04-07T02:20:55.420Z,17.50
2023-04-07T02:22:28.421Z,15.50
2023-04-07T02:24:06.800Z,17.10
2023-04-07T02:25:38.670Z,17.80
2023-04-07T02:27:10.538Z,17.00
2023-04-07T02:28:42.301Z,17.10
2023-04-07T02:30:15.429Z,17.50
2023-04-07T02:31:47.135Z,16.00
2023-04-07T02:33:18.836Z,17.60
2023-04-07T02:34:50.564Z,15.50
2023-04-07T02:36:22.314Z,16.60
2023-04-07T02:37:54.461Z,20.60
2023-04-07T02:39:26.235Z,17.70
2023-04-07T02:40:58.739Z,17.40
2023-04-07T02:42:30.712Z,17.20
2023-04-07T02:44:02.405Z,18.40
2023-04-07T02:45:34.212Z,16.10
2023-04-07T02:47:05.870Z,16.90
2023-04-07T02:48:37.653Z,17.60
2023-04-07T02:50:10.291Z,18.40
2023-04-07T02:51:42.057Z,19.60
2023-04-07T02:53:13.832Z,17.50
2023-04-07T02:54:45.561Z,17.10
2023-04-07T02:56:17.504Z,18.00
2023-04-07T02:57:49.706Z,19.60
2023-04-07T02:59:43.047Z,21.30
2023-04-07T03:01:15.395Z,16.70
2023-04-07T03:02:47.263Z,22.90
2023-04-07T03:04:20.174Z,25.90
2023-04-07T03:05:52.239Z,26.80
2023-04-07T03:07:24.112Z,23.30
2023-04-07T03:08:56.844Z,23.30
2023-04-07T03:10:28.533Z,21.80
2023-04-07T03:12:00.375Z,24.30
2023-04-07T03:13:35.710Z,25.90
2023-04-07T03:15:09.422Z,25.80
2023-04-07T03:16:41.308Z,26.80
2023-04-07T03:18:15.750Z,27.20
2023-04-07T03:19:47.525Z,25.80
2023-04-07T03:21:19.211Z,25.20
2023-04-07T03:22:51.075Z,22.70
2023-04-07T03:24:27.201Z,23.80
2023-04-07T03:25:58.966Z,21.80
2023-04-07T03:27:33.421Z,22.50
2023-04-07T03:29:05.949Z,22.40
2023-04-07T03:30:38.138Z,23.10
2023-04-07T03:32:10.426Z,24.70
2023-04-07T03:33:42.634Z,23.40
2023-04-07T03:35:14.394Z,30.40
2023-04-07T03:36:46.078Z,24.50
2023-04-07T03:38:18.054Z,26.60
2023-04-07T03:39:51.621Z,24.30
2023-04-07T03:41:29.443Z,25.80
2023-04-07T03:43:01.350Z,25.40
2023-04-07T03:44:34.099Z,35.10
2023-04-07T03:46:05.931Z,34.20
2023-04-07T03:47:37.865Z,29.00
2023-04-07T03:49:10.086Z,28.20
2023-04-07T03:50:42.068Z,32.50
2023-04-07T03:52:18.284Z,29.00
2023-04-07T03:53:51.672Z,32.40
2023-04-07T03:55:39.861Z,33.10
2023-04-07T03:57:17.070Z,31.00
2023-04-07T03:58:51.125Z,32.30
2023-04-07T04:00:31.762Z,31.10
2023-04-07T04:02:09.310Z,28.70
2023-04-07T04:03:41.886Z,28.70
2023-04-07T04:05:23.861Z,27.60
2023-04-07T04:06:55.942Z,30.80
2023-04-07T04:08:46.026Z,26.80
2023-04-07T04:10:21.971Z,26.90
2023-04-07T04:11:56.985Z,29.10
2023-04-07T04:13:28.906Z,27.10
2023-04-07T04:15:01.007Z,29.30
2023-04-07T04:16:32.839Z,24.40
2023-04-07T04:18:07.145Z,27.50
2023-04-07T04:19:39.013Z,31.30
2023-04-07T04:21:17.543Z,27.00
2023-04-07T04:22:49.556Z,28.50
2023-04-07T04:24:21.666Z,28.80
2023-04-07T04:25:54.103Z,26.70
2023-04-07T04:27:26.662Z,30.60
2023-04-07T04:29:04.150Z,29.50
2023-04-07T04:30:36.155Z,26.80
2023-04-07T04:32:08.586Z,24.30
2023-04-07T04:33:40.484Z,26.70
2023-04-07T04:35:12.239Z,29.60
2023-04-07T04:36:51.477Z,28.10
2023-04-07T04:38:23.741Z,29.10
2023-04-07T04:40:14.654Z,30.50
2023-04-07T04:41:47.564Z,28.50
2023-04-07T04:43:19.446Z,31.70
2023-04-07T04:44:51.334Z,28.90
2023-04-07T04:46:23.316Z,27.60
2023-04-07T04:47:55.096Z,28.90
2023-04-07T04:49:26.768Z,27.30
2023-04-07T04:50:59.864Z,26.70
2023-04-07T04:52:31.854Z,27.80
2023-04-07T04:54:06.409Z,31.50
2023-04-07T04:55:40.790Z,30.70
2023-04-07T04:57:12.875Z,30.40
2023-04-07T04:58:46.651Z,31.20
2023-04-07T05:00:35.077Z,28.60
2023-04-07T05:02:08.895Z,28.80
2023-04-07T05:03:41.069Z,30.70
2023-04-07T05:05:19.234Z,30.80
2023-04-07T05:06:51.450Z,29.80
2023-04-07T05:08:24.729Z,31.40
2023-04-07T05:09:56.967Z,30.80
2023-04-07T05:11:29.157Z,27.30
2023-04-07T05:13:01.261Z,31.10
2023-04-07T05:14:33.045Z,29.00
2023-04-07T05:16:08.954Z,30.80
2023-04-07T05:17:41.605Z,29.40
2023-04-07T05:19:13.892Z,32.00
2023-04-07T05:20:45.628Z,32.10
2023-04-07T05:22:17.524Z,30.90
2023-04-07T05:23:51.679Z,31.30
2023-04-07T05:25:24.883Z,26.30
2023-04-07T05:26:58.299Z,30.40
2023-04-07T05:28:30.424Z,31.60
2023-04-07T05:30:03.948Z,32.30
2023-04-07T05:31:37.763Z,25.70
2023-04-07T05:33:12.225Z,25.90
2023-04-07T05:34:49.559Z,30.00
2023-04-07T05:36:21.724Z,29.20
2023-04-07T05:37:54.892Z,29.40
2023-04-07T05:39:27.122Z,27.30
2023-04-07T05:41:00.399Z,24.60
2023-04-07T05:42:36.095Z,25.40
2023-04-07T05:44:08.491Z,25.00
2023-04-07T05:45:42.527Z,27.90
2023-04-07T05:47:14.316Z,24.80
2023-04-07T05:48:46.432Z,25.50
2023-04-07T05:50:18.803Z,24.90
2023-04-07T05:51:51.187Z,26.90
2023-04-07T05:53:22.971Z,26.70
2023-04-07T05:54:54.759Z,23.40
2023-04-07T06:05:15.609Z,22.60
2023-04-07T06:06:48.864Z,23.40
2023-04-07T06:08:20.656Z,23.20
2023-04-07T06:09:52.435Z,22.20
2023-04-07T06:11:24.155Z,20.00
2023-04-07T06:12:56.191Z,21.40
2023-04-07T06:14:27.991Z,24.70
2023-04-07T06:15:59.692Z,22.60
2023-04-07T06:17:31.503Z,25.10
2023-04-07T06:19:03.690Z,21.20
2023-04-07T06:20:35.862Z,24.60
2023-04-07T06:22:07.629Z,23.40
2023-04-07T06:23:39.414Z,25.40
2023-04-07T06:25:11.823Z,24.00
2023-04-07T06:26:45.553Z,25.20
2023-04-07T06:28:18.355Z,25.50
2023-04-07T06:29:50.137Z,21.50
2023-04-07T06:31:22.062Z,21.00
2023-04-07T06:32:53.938Z,23.70
2023-04-07T06:34:25.705Z,23.00
2023-04-07T06:35:57.659Z,23.30
2023-04-07T06:37:29.615Z,25.10
2023-04-07T06:39:01.462Z,22.60
2023-04-07T06:40:33.957Z,21.10
2023-04-07T06:42:06.286Z,26.80
2023-04-07T06:43:41.624Z,27.10
2023-04-07T06:45:13.262Z,24.50
2023-04-07T06:46:47.488Z,24.70
2023-04-07T06:48:19.152Z,26.30
2023-04-07T06:49:51.210Z,29.50
2023-04-07T06:51:22.897Z,27.30
2023-04-07T06:52:54.789Z,28.20
2023-04-07T06:54:26.575Z,22.80
2023-04-07T06:56:06.594Z,23.50
2023-04-07T06:57:38.232Z,25.60
2023-04-07T06:59:10.573Z,23.50
2023-04-07T07:00:42.326Z,24.70
2023-04-07T07:02:14.230Z,24.90
2023-04-07T07:03:46.746Z,25.50
2023-04-07T07:05:18.794Z,26.80
2023-04-07T07:06:50.861Z,26.30
2023-04-07T07:08:23.721Z,26.50
2023-04-07T07:09:55.565Z,25.20
2023-04-07T07:11:27.318Z,24.30
2023-04-07T07:12:59.011Z,24.70
2023-04-07T07:14:30.802Z,25.00
2023-04-07T07:16:02.920Z,25.30
2023-04-07T07:17:35.387Z,26.40
2023-04-07T07:19:07.177Z,25.10
2023-04-07T07:20:38.843Z,24.80
2023-04-07T07:22:10.913Z,22.70
2023-04-07T07:23:43.042Z,23.00
2023-04-07T07:25:14.944Z,21.80
2023-04-07T07:26:46.795Z,20.80
2023-04-07T07:28:18.674Z,18.10
2023-04-07T07:29:50.344Z,21.10
2023-04-07T07:31:22.119Z,21.20
2023-04-07T07:32:55.292Z,21.60
2023-04-07T07:34:27.217Z,20.20
2023-04-07T07:35:58.962Z,18.80
2023-04-07T07:37:30.713Z,19.60
2023-04-07T07:39:02.508Z,20.70
2023-04-07T07:40:34.604Z,17.80
2023-04-07T07:42:06.276Z,17.90
2023-04-07T07:43:38.016Z,16.50
2023-04-07T07:45:10.468Z,16.40
2023-04-07T07:46:42.188Z,17.00
2023-04-07T07:48:14.067Z,18.30
2023-04-07T07:49:45.959Z,16.30
2023-04-07T07:51:18.402Z,16.10
2023-04-07T07:52:50.084Z,18.30
2023-04-07T07:54:21.917Z,14.40
2023-04-07T07:55:55.909Z,14.30
2023-04-07T07:57:27.672Z,13.80
2023-04-07T07:58:59.460Z,14.30
2023-04-07T08:00:31.655Z,12.50
2023-04-07T08:02:03.460Z,13.10
2023-04-07T08:03:35.614Z,11.50
2023-04-07T08:05:08.474Z,12.40
2023-04-07T08:06:41.754Z,11.50
2023-04-07T08:08:13.467Z,12.10
2023-04-07T08:09:45.228Z,11.20
2023-04-07T08:11:17.145Z,12.30
2023-04-07T08:12:49.166Z,12.90
2023-04-07T08:14:21.221Z,11.70
2023-04-07T08:15:54.319Z,12.60
2023-04-07T08:17:26.244Z,9.90
2023-04-07T08:18:58.157Z,11.90
2023-04-07T08:20:31.902Z,11.20
2023-04-07T08:22:03.685Z,11.30
2023-04-07T08:23:35.867Z,11.90
2023-04-07T08:25:08.157Z,10.60
2023-04-07T08:26:39.916Z,10.60
2023-04-07T08:28:11.636Z,10.60
2023-04-07T08:29:43.384Z,10.80
2023-04-07T08:31:15.500Z,11.80
2023-04-07T08:32:47.275Z,10.70
2023-04-07T08:34:21.068Z,10.90
2023-04-07T08:35:52.836Z,9.40
2023-04-07T08:37:24.946Z,11.50
2023-04-07T08:38:56.875Z,10.30
2023-04-07T08:40:29.140Z,10.30
2023-04-07T08:42:01.535Z,10.10
2023-04-07T08:43:36.317Z,10.30
2023-04-07T08:45:09.878Z,10.80
2023-04-07T08:46:42.103Z,9.80
2023-04-07T08:48:18.818Z,10.20
2023-04-07T08:49:53.023Z,9.90
2023-04-07T08:51:31.797Z,11.00
2023-04-07T08:53:09.553Z,12.60
2023-04-07T08:54:42.695Z,13.40
2023-04-07T08:56:15.402Z,13.10
2023-04-07T08:57:48.666Z,13.90
2023-04-07T08:59:26.706Z,14.50
2023-04-07T09:00:59.607Z,11.80
2023-04-07T09:02:40.023Z,12.60
2023-04-07T09:04:13.407Z,14.70
2023-04-07T09:05:46.435Z,14.70
2023-04-07T09:07:18.864Z,14.30
2023-04-07T09:08:51.082Z,14.70
2023-04-07T09:10:23.309Z,13.60
2023-04-07T09:11:56.807Z,12.60
2023-04-07T09:13:28.786Z,12.30
2023-04-07T09:15:01.104Z,13.00
2023-04-07T09:16:33.345Z,12.40
2023-04-07T09:18:06.814Z,11.80
2023-04-07T09:19:39.314Z,12.10
2023-04-07T09:21:11.468Z,13.40
2023-04-07T09:22:48.031Z,11.20
2023-04-07T09:24:29.723Z,10.30
2023-04-07T09:26:25.036Z,10.70
2023-04-07T09:28:05.464Z,11.20
2023-04-07T09:29:38.459Z,11.80
2023-04-07T09:31:10.982Z,10.40
2023-04-07T09:32:43.939Z,9.50
2023-04-07T09:34:37.020Z,10.50
2023-04-07T09:36:10.655Z,9.30
2023-04-07T09:37:43.043Z,8.50
2023-04-07T09:39:15.599Z,9.80
2023-04-07T09:40:48.425Z,8.60
2023-04-07T09:42:21.545Z,9.30
2023-04-07T09:43:58.144Z,8.90
2023-04-07T09:45:37.001Z,7.50
2023-04-07T09:47:09.710Z,7.80
2023-04-07T09:48:45.213Z,8.80
2023-04-07T09:50:35.218Z,8.80
2023-04-07T09:52:09.841Z,8.80
2023-04-07T09:53:52.530Z,7.40
2023-04-07T09:55:24.737Z,7.40
2023-04-07T09:56:58.416Z,7.40
2023-04-07T09:58:30.298Z,6.90
2023-04-07T10:00:02.826Z,6.70
2023-04-07T10:01:44.881Z,7.70
2023-04-07T10:03:17.850Z,6.80
2023-04-07T10:04:49.823Z,7.50
2023-04-07T10:06:21.836Z,6.60
2023-04-07T10:07:54.658Z,6.90
2023-04-07T10:09:31.462Z,6.90
2023-04-07T10:11:05.511Z,7.90
2023-04-07T10:12:38.404Z,6.70
2023-04-07T10:14:11.644Z,7.10
2023-04-07T10:15:43.594Z,6.60
2023-04-07T10:17:20.568Z,7.20
2023-04-07T10:18:52.842Z,7.70
2023-04-07T10:20:25.355Z,6.60
2023-04-07T10:21:58.448Z,5.90
2023-04-07T10:24:05.481Z,6.80
2023-04-07T10:25:40.172Z,6.60
2023-04-07T10:27:19.736Z,5.90
2023-04-07T10:28:59.101Z,6.50
2023-04-07T10:30:34.386Z,7.10
2023-04-07T10:32:06.889Z,6.40
2023-04-07T10:33:47.653Z,5.80
2023-04-07T10:35:22.374Z,6.70
2023-04-07T10:37:14.299Z,6.10
2023-04-07T10:39:07.687Z,6.20
2023-04-07T10:40:41.735Z,7.80
2023-04-07T10:42:38.756Z,5.90
2023-04-07T10:44:39.142Z,7.70
2023-04-07T10:46:10.955Z,6.90
2023-04-07T10:48:03.180Z,6.00
2023-04-07T10:49:36.556Z,8.00
2023-04-07T10:51:18.921Z,6.50
2023-04-07T10:53:08.547Z,6.50
2023-04-07T10:54:41.490Z,6.30
2023-04-07T10:56:13.205Z,7.00
2023-04-07T10:58:20.484Z,7.30
2023-04-07T11:00:10.641Z,6.90
2023-04-07T11:01:42.582Z,7.00
2023-04-07T11:03:14.792Z,8.20
2023-04-07T11:04:47.361Z,7.70
2023-04-07T11:06:19.408Z,9.00
2023-04-07T11:07:59.384Z,6.90
2023-04-07T11:09:31.368Z,6.10
2023-04-07T11:11:09.464Z,6.90
2023-04-07T11:12:42.479Z,7.20
2023-04-07T11:14:29.665Z,7.10
2023-04-07T11:16:01.440Z,6.20
2023-04-07T11:17:33.303Z,7.00
2023-04-07T11:19:05.055Z,7.20
2023-04-07T11:21:00.791Z,8.20
2023-04-07T11:22:34.227Z,7.90
2023-04-07T11:24:06.434Z,7.20
2023-04-07T11:25:38.619Z,7.50
2023-04-07T11:27:15.317Z,8.00
2023-04-07T11:28:55.733Z,7.40
2023-04-07T11:30:27.961Z,7.00
2023-04-07T11:32:02.405Z,7.20
2023-04-07T11:33:37.061Z,7.00
2023-04-07T11:35:09.780Z,8.00
2023-04-07T11:36:42.031Z,6.90
2023-04-07T11:38:13.951Z,7.50
2023-04-07T11:39:55.449Z,8.10
2023-04-07T11:41:30.574Z,7.40
2023-04-07T11:43:15.174Z,7.70
2023-04-07T11:44:46.963Z,7.70
2023-04-07T11:46:19.319Z,8.20
2023-04-07T11:47:51.129Z,7.00
2023-04-07T11:49:25.164Z,6.80
2023-04-07T11:50:57.572Z,6.60
2023-04-07T11:52:29.345Z,8.20
2023-04-07T11:54:01.641Z,7.70
2023-04-07T11:55:35.586Z,6.90
2023-04-07T11:57:07.492Z,7.00
2023-04-07T11:58:39.667Z,6.60
2023-04-07T12:00:14.259Z,6.40
2023-04-07T12:01:46.083Z,7.50
2023-04-07T12:03:18.725Z,6.30
2023-04-07T12:04:57.448Z,9.20
2023-04-07T12:06:38.927Z,7.00
2023-04-07T12:08:11.029Z,6.90
2023-04-07T12:09:42.913Z,8.20
2023-04-07T12:11:14.707Z,6.90
2023-04-07T12:12:47.936Z,7.10
2023-04-07T12:14:19.926Z,7.80
2023-04-07T12:15:52.665Z,6.20
2023-04-07T12:17:27.241Z,6.70
2023-04-07T12:18:58.964Z,5.70
2023-04-07T12:20:31.471Z,4.90
2023-04-07T12:22:03.788Z,6.20
2023-04-07T12:23:35.650Z,5.20
2023-04-07T12:25:08.174Z,5.60
2023-04-07T12:26:39.910Z,5.50
2023-04-07T12:28:11.752Z,5.50
2023-04-07T12:29:44.013Z,6.20
2023-04-07T12:31:15.984Z,6.30
2023-04-07T12:32:47.755Z,6.40
2023-04-07T12:34:19.750Z,6.00
2023-04-07T12:35:51.983Z,6.20
2023-04-07T12:37:23.837Z,4.40
2023-04-07T12:38:59.206Z,5.40
2023-04-07T12:40:32.312Z,5.90
2023-04-07T12:42:05.254Z,6.00
2023-04-07T12:43:37.025Z,5.00
2023-04-07T12:45:09.435Z,4.50
2023-04-07T12:46:41.631Z,4.30
2023-04-07T12:48:13.520Z,4.50
2023-04-07T12:49:45.499Z,6.60
2023-04-07T12:51:17.971Z,5.90
2023-04-07T12:52:50.066Z,5.10
2023-04-07T12:54:22.078Z,5.50
2023-04-07T12:55:53.793Z,5.10
2023-04-07T12:57:25.759Z,6.70
2023-04-07T12:58:57.441Z,6.40
2023-04-07T13:00:29.109Z,6.30
2023-04-07T13:02:01.110Z,4.90
2023-04-07T13:03:33.151Z,5.20
2023-04-07T13:05:05.919Z,4.00
2023-04-07T13:06:38.180Z,4.80
2023-04-07T13:08:10.506Z,5.00
2023-04-07T13:09:46.079Z,4.40
2023-04-07T13:11:17.829Z,5.20
2023-04-07T13:12:50.202Z,4.20
2023-04-07T13:14:21.900Z,4.20
2023-04-07T13:15:54.680Z,4.20
2023-04-07T13:17:27.010Z,5.90
2023-04-07T13:19:00.310Z,5.70
2023-04-07T13:20:32.961Z,3.80
2023-04-07T13:22:06.250Z,5.10
2023-04-07T13:23:43.143Z,5.40
2023-04-07T13:25:16.320Z,4.30
2023-04-07T13:26:49.007Z,4.40
2023-04-07T13:28:22.925Z,4.80
2023-04-07T13:29:54.814Z,5.50
2023-04-07T13:31:27.912Z,4.10
2023-04-07T13:33:01.651Z,3.50
2023-04-07T13:34:36.088Z,4.20
2023-04-07T13:36:08.470Z,5.90
2023-04-07T13:37:41.078Z,4.60
2023-04-07T13:39:13.317Z,5.30
2023-04-07T13:40:48.178Z,5.30
2023-04-07T13:42:21.548Z,4.20
2023-04-07T13:43:53.565Z,5.10
2023-04-07T13:45:25.551Z,5.00
2023-04-07T13:47:00.697Z,4.60
2023-04-07T13:48:33.280Z,4.20
2023-04-07T13:50:07.136Z,4.00
2023-04-07T13:51:39.191Z,5.20
2023-04-07T13:53:10.992Z,4.60
2023-04-07T13:54:45.970Z,4.80
2023-04-07T13:56:17.756Z,4.50
2023-04-07T13:57:50.802Z,4.90
2023-04-07T13:59:22.983Z,4.20
2023-04-07T14:00:54.863Z,5.30
2023-04-07T14:02:30.618Z,4.60
2023-04-07T14:04:03.673Z,4.30
2023-04-07T14:05:36.171Z,6.30
2023-04-07T14:07:08.348Z,6.90
2023-04-07T14:08:41.949Z,6.00
2023-04-07T14:10:14.099Z,4.30
2023-04-07T14:11:46.965Z,4.70
2023-04-07T14:13:19.320Z,4.50
2023-04-07T14:14:52.545Z,4.70
2023-04-07T14:16:25.407Z,4.40
2023-04-07T14:17:59.071Z,5.10
2023-04-07T14:19:32.281Z,5.40
2023-04-07T14:21:06.144Z,4.60
2023-04-07T14:22:38.238Z,5.60
2023-04-07T14:24:10.016Z,5.20
2023-04-07T14:25:42.021Z,6.00
2023-04-07T14:27:15.513Z,6.20
2023-04-07T14:28:47.573Z,5.50
2023-04-07T14:30:19.393Z,5.30
2023-04-07T14:31:51.536Z,5.70
2023-04-07T14:33:23.452Z,6.10
2023-04-07T14:34:56.638Z,5.80
2023-04-07T14:36:29.397Z,5.40
2023-04-07T14:38:01.472Z,6.50
2023-04-07T14:39:33.146Z,6.30
2023-04-07T14:41:10.105Z,6.50
2023-04-07T14:42:42.050Z,5.30
2023-04-07T14:44:14.460Z,7.10
2023-04-07T14:45:46.248Z,6.50
2023-04-07T14:47:18.039Z,6.30
2023-04-07T14:48:54.030Z,6.20
2023-04-07T14:50:26.117Z,7.50
2023-04-07T14:51:58.597Z,6.40
2023-04-07T14:53:30.322Z,7.00
2023-04-07T14:55:02.121Z,7.10
2023-04-07T14:56:34.040Z,7.50
2023-04-07T14:58:05.719Z,7.40
2023-04-07T14:59:37.425Z,8.30
2023-04-07T15:01:09.233Z,7.10
2023-04-07T15:02:41.230Z,7.00
2023-04-07T15:04:13.475Z,6.50
2023-04-07T15:05:45.450Z,5.50
2023-04-07T15:07:17.439Z,6.10
2023-04-07T15:08:49.113Z,6.80
2023-04-07T15:10:21.535Z,6.40
2023-04-07T15:11:53.372Z,6.90
2023-04-07T15:13:25.075Z,6.40
2023-04-07T15:14:57.252Z,7.20
2023-04-07T15:16:29.244Z,7.10
2023-04-07T15:18:01.098Z,6.30
2023-04-07T15:19:32.875Z,6.50
2023-04-07T15:21:05.342Z,7.20
2023-04-07T15:22:37.068Z,6.10
2023-04-07T15:24:08.755Z,6.10
2023-04-07T15:25:40.981Z,6.90
2023-04-07T15:27:12.711Z,6.10
2023-04-07T15:28:44.416Z,6.70
2023-04-07T15:30:16.471Z,6.70
2023-04-07T15:31:48.286Z,6.10
2023-04-07T15:33:20.179Z,6.70
2023-04-07T15:34:51.852Z,7.00
2023-04-07T15:36:23.893Z,6.50
2023-04-07T15:37:55.944Z,6.50
2023-04-07T15:39:27.621Z,7.10
2023-04-07T15:40:59.403Z,7.70
2023-04-07T15:42:31.933Z,7.60
2023-04-07T15:44:04.205Z,7.40
2023-04-07T15:52:37.364Z,7.00
2023-04-07T15:54:09.165Z,7.10
2023-04-07T15:55:41.019Z,6.00
2023-04-07T15:57:13.221Z,6.90
2023-04-07T15:58:46.020Z,7.60
2023-04-07T16:00:18.428Z,7.40
2023-04-07T16:01:50.996Z,6.10
2023-04-07T16:03:23.179Z,8.20
2023-04-07T16:04:55.025Z,6.90
2023-04-07T16:06:27.428Z,7.00
2023-04-07T16:07:59.365Z,7.20
2023-04-07T16:09:31.056Z,5.90
2023-04-07T16:11:02.738Z,7.00
2023-04-07T16:12:36.701Z,6.00
2023-04-07T16:14:09.301Z,5.40
2023-04-07T16:15:41.881Z,6.40
2023-04-07T16:17:13.763Z,7.10
2023-04-07T16:18:46.500Z,7.30
2023-04-07T16:20:18.369Z,6.40
2023-04-07T16:21:50.254Z,6.90
2023-04-07T16:23:22.162Z,7.60
2023-04-07T16:24:54.843Z,7.40
2023-04-07T16:26:27.006Z,7.70
2023-04-07T16:27:58.810Z,7.40
2023-04-07T16:29:30.798Z,7.60
2023-04-07T16:31:03.017Z,7.10
2023-04-07T16:32:35.394Z,6.90
2023-04-07T16:34:07.359Z,7.80
2023-04-07T16:35:39.077Z,6.50
2023-04-07T16:37:11.697Z,7.70
2023-04-07T16:38:43.552Z,6.70
2023-04-07T16:40:15.953Z,7.40
2023-04-07T16:41:47.733Z,8.80
2023-04-07T16:43:19.730Z,7.40
2023-04-07T16:44:51.494Z,6.80
2023-04-07T16:46:26.180Z,6.50
2023-04-07T16:47:58.186Z,6.80
2023-04-07T16:49:29.934Z,6.20
2023-04-07T16:51:01.706Z,6.70
2023-04-07T16:52:33.491Z,7.70
2023-04-07T16:54:05.260Z,6.30
2023-04-07T16:55:38.320Z,6.20
2023-04-07T16:57:10.060Z,7.10
2023-04-07T16:58:41.699Z,8.00
2023-04-07T17:00:13.846Z,8.60
2023-04-07T17:01:45.874Z,7.40
2023-04-07T17:03:17.949Z,8.20
2023-04-07T17:04:49.801Z,9.20
2023-04-07T17:06:21.991Z,8.30
2023-04-07T17:07:55.577Z,7.10
2023-04-07T17:09:28.617Z,6.80
2023-04-07T17:11:01.025Z,7.20
2023-04-07T17:12:32.722Z,7.70
2023-04-07T17:14:04.418Z,8.40
2023-04-07T17:15:37.929Z,8.80
2023-04-07T17:17:09.752Z,8.20
2023-04-07T17:18:41.590Z,8.30
2023-04-07T17:20:17.543Z,7.20
2023-04-07T17:21:49.464Z,7.90
2023-04-07T17:23:21.160Z,8.60
2023-04-07T17:24:53.142Z,8.90
2023-04-07T17:26:24.838Z,6.60
2023-04-07T17:27:56.710Z,7.90
2023-04-07T17:29:31.192Z,8.10
2023-04-07T17:31:02.879Z,7.10
2023-04-07T17:32:34.670Z,8.00
2023-04-07T17:34:06.717Z,7.70
2023-04-07T17:35:38.556Z,7.80
2023-04-07T17:37:10.264Z,7.50
2023-04-07T17:38:41.950Z,9.90
2023-04-07T17:40:13.845Z,13.70
2023-04-07T17:41:46.800Z,19.80
2023-04-07T17:43:18.457Z,9.80
2023-04-07T17:44:52.827Z,11.10
2023-04-07T17:46:24.535Z,8.30
2023-04-07T17:47:56.271Z,7.50
2023-04-07T17:49:28.228Z,8.80
2023-04-07T17:51:00.054Z,8.60
2023-04-07T17:52:32.189Z,10.40
2023-04-07T17:54:04.005Z,8.50
2023-04-07T17:55:35.684Z,9.50
2023-04-07T17:57:08.367Z,9.50
2023-04-07T17:58:41.170Z,9.70
2023-04-07T18:00:13.579Z,9.70
2023-04-07T18:01:45.411Z,9.30
2023-04-07T18:03:17.755Z,9.40
2023-04-07T18:04:49.628Z,9.40
2023-04-07T18:06:21.870Z,9.60
2023-04-07T18:07:54.967Z,11.10
2023-04-07T18:09:27.685Z,10.10
2023-04-07T18:10:59.558Z,10.90
2023-04-07T18:12:31.972Z,9.50
2023-04-07T18:14:03.769Z,12.00
2023-04-07T18:15:35.757Z,10.70
2023-04-07T18:17:07.613Z,10.20
2023-04-07T18:18:39.365Z,10.70
2023-04-07T18:20:11.792Z,10.50
2023-04-07T18:21:43.660Z,12.40
2023-04-07T18:23:15.436Z,11.60
2023-04-07T18:24:47.421Z,12.10
2023-04-07T18:26:19.167Z,11.60
2023-04-07T18:27:50.930Z,10.50
2023-04-07T18:29:22.816Z,10.70
2023-04-07T18:31:03.965Z,10.40
2023-04-07T18:32:36.264Z,11.70
2023-04-07T18:34:08.755Z,12.00
2023-04-07T18:35:40.557Z,11.90
2023-04-07T18:37:12.405Z,13.20
2023-04-07T18:38:44.091Z,15.50
2023-04-07T18:40:16.552Z,11.70
2023-04-07T18:41:48.677Z,12.90
2023-04-07T18:43:20.834Z,12.50
2023-04-07T18:44:52.497Z,11.90
2023-04-07T18:46:24.280Z,14.10
2023-04-07T18:47:56.246Z,13.70
2023-04-07T18:49:29.184Z,11.70
2023-04-07T18:51:00.968Z,13.90
2023-04-07T18:52:32.806Z,12.30
2023-04-07T18:54:04.672Z,12.20
2023-04-07T18:55:36.451Z,13.50
2023-04-07T18:57:08.244Z,14.60
2023-04-07T18:58:44.758Z,13.80
2023-04-07T19:00:16.500Z,14.10
2023-04-07T19:01:48.229Z,13.40
2023-04-07T19:03:21.800Z,12.80
2023-04-07T19:04:53.741Z,12.60
2023-04-07T19:06:26.109Z,15.00
2023-04-07T19:07:57.763Z,13.90
2023-04-07T19:09:29.674Z,14.40
2023-04-07T19:11:01.446Z,15.00
2023-04-07T19:12:33.345Z,12.90
2023-04-07T19:14:05.958Z,12.70
2023-04-07T19:15:39.276Z,13.90
2023-04-07T19:17:11.797Z,14.00
2023-04-07T19:18:43.642Z,14.10
2023-04-07T19:20:15.557Z,16.30
2023-04-07T19:21:47.232Z,15.50
2023-04-07T19:23:18.995Z,16.70
2023-04-07T19:24:51.115Z,15.90
2023-04-07T19:26:23.374Z,16.30
2023-04-07T19:27:55.271Z,18.10
2023-04-07T19:29:27.076Z,17.70
2023-04-07T19:30:58.833Z,16.60
2023-04-07T19:32:31.310Z,18.20
2023-04-07T19:34:03.142Z,16.60
2023-04-07T19:35:39.016Z,15.00
2023-04-07T19:37:10.957Z,14.30
2023-04-07T19:38:42.803Z,14.90
2023-04-07T19:40:14.706Z,17.90
2023-04-07T19:41:46.445Z,16.80
2023-04-07T19:43:18.093Z,15.40
2023-04-07T19:44:49.807Z,17.10
2023-04-07T19:46:21.633Z,15.40
2023-04-07T19:47:54.536Z,17.00
2023-04-07T19:49:26.595Z,17.10
2023-04-07T19:50:58.277Z,14.80
2023-04-07T19:52:33.581Z,16.10
2023-04-07T19:54:05.217Z,17.90
2023-04-07T19:55:37.216Z,17.60
2023-04-07T19:57:09.008Z,17.30
2023-04-07T19:58:40.710Z,16.10
2023-04-07T20:00:13.408Z,17.70
2023-04-07T20:01:53.933Z,16.20
2023-04-07T20:03:26.267Z,19.70
2023-04-07T20:04:58.066Z,18.30
2023-04-07T20:06:31.497Z,19.00
2023-04-07T20:08:04.921Z,18.30
2023-04-07T20:09:37.006Z,18.80
2023-04-07T20:11:12.971Z,17.00
2023-04-07T20:12:44.882Z,18.80
2023-04-07T20:14:16.589Z,17.70
2023-04-07T20:15:49.136Z,17.70
2023-04-07T20:17:20.992Z,18.10
2023-04-07T20:18:52.911Z,19.20
2023-04-07T20:20:25.645Z,19.30
2023-04-07T20:21:57.743Z,17.90
2023-04-07T20:23:30.223Z,19.80
2023-04-07T20:25:05.498Z,21.30
2023-04-07T20:26:38.063Z,20.70
2023-04-07T20:28:10.457Z,21.40
2023-04-07T20:29:42.790Z,19.90
2023-04-07T20:31:15.208Z,19.40
2023-04-07T20:32:47.498Z,20.20
2023-04-07T20:34:19.842Z,19.30
2023-04-07T20:35:52.641Z,19.10
2023-04-07T20:37:26.594Z,19.90
2023-04-07T20:38:59.198Z,19.20
2023-04-07T20:40:36.410Z,19.50
2023-04-07T20:42:08.175Z,17.20